THA1123 VTCN-VTBS
Flight info
| Callsign | THA1123 |
|---|---|
| Flight time | 1h 17m |
| Altitude | 35000 |
| Route | NAN W29 PSL Y28 BLAFF DCT NORTA NORTA1C |
| Aircraft | A320/M-SDE3FGHIRWY/LB1 |
Departure
| Time | 2026-05-09 02:02 |
|---|---|
| Airport | Nan Airport (VTCN) |
Arrival
| Time | 2026-05-09 03:20 |
|---|---|
| Airport | Suvarnabhumi Airport (VTBS) |
| Time | Latitude | Longitude | Altitude | Speed | Heading |
|---|---|---|---|---|---|
| 2026-05-09 01:54 | 18.80309 | 100.78409 | 706 ft | 0 kts | 117° |
| 2026-05-09 01:56 | 18.80312 | 100.78402 | 700 ft | 2 kts | 116° |
| 2026-05-09 01:56 | 18.80319 | 100.78386 | 699 ft | 2 kts | 115° |
| 2026-05-09 01:57 | 18.80327 | 100.78371 | 701 ft | 2 kts | 117° |
| 2026-05-09 01:57 | 18.80334 | 100.78355 | 702 ft | 2 kts | 121° |
| 2026-05-09 01:57 | 18.80343 | 100.78341 | 701 ft | 2 kts | 139° |
| 2026-05-09 01:57 | 18.80358 | 100.78334 | 702 ft | 2 kts | 212° |
| 2026-05-09 01:58 | 18.80372 | 100.78343 | 702 ft | 2 kts | 211° |
| 2026-05-09 01:58 | 18.80377 | 100.78346 | 701 ft | 0 kts | 210° |
| 2026-05-09 01:59 | 18.80361 | 100.78336 | 701 ft | 5 kts | 210° |
| 2026-05-09 01:59 | 18.80328 | 100.78317 | 704 ft | 6 kts | 210° |
| 2026-05-09 02:00 | 18.80284 | 100.78290 | 702 ft | 8 kts | 210° |
| 2026-05-09 02:00 | 18.80224 | 100.78254 | 707 ft | 12 kts | 210° |
| 2026-05-09 02:00 | 18.80145 | 100.78205 | 702 ft | 14 kts | 211° |
| 2026-05-09 02:00 | 18.80053 | 100.78148 | 699 ft | 16 kts | 210° |
| 2026-05-09 02:01 | 18.79962 | 100.78092 | 705 ft | 15 kts | 210° |
| 2026-05-09 02:01 | 18.79955 | 100.78024 | 700 ft | 12 kts | 321° |
| 2026-05-09 02:01 | 18.80007 | 100.78029 | 705 ft | 0 kts | 22° |
| 2026-05-09 02:01 | 18.80050 | 100.78047 | 700 ft | 29 kts | 21° |
| 2026-05-09 02:02 | 18.80475 | 100.78216 | 704 ft | 98 kts | 20° |
| 2026-05-09 02:02 | 18.81277 | 100.78534 | 717 ft | 145 kts | 21° |
| 2026-05-09 02:02 | 18.82228 | 100.78916 | 1266 ft | 145 kts | 21° |
| 2026-05-09 02:02 | 18.83167 | 100.79288 | 1812 ft | 145 kts | 21° |
| 2026-05-09 02:03 | 18.84141 | 100.79674 | 2090 ft | 159 kts | 21° |
| 2026-05-09 02:03 | 18.85245 | 100.80142 | 2280 ft | 183 kts | 30° |
| 2026-05-09 02:03 | 18.86052 | 100.81229 | 2505 ft | 204 kts | 77° |
| 2026-05-09 02:03 | 18.85863 | 100.82755 | 2751 ft | 227 kts | 121° |
| 2026-05-09 02:04 | 18.84626 | 100.83880 | 3135 ft | 252 kts | 159° |
| 2026-05-09 02:04 | 18.82843 | 100.84008 | 3801 ft | 266 kts | 188° |
| 2026-05-09 02:04 | 18.81041 | 100.83478 | 4717 ft | 271 kts | 198° |
| 2026-05-09 02:04 | 18.79302 | 100.82745 | 5651 ft | 273 kts | 200° |
| 2026-05-09 02:05 | 18.77544 | 100.81964 | 6547 ft | 276 kts | 201° |
| 2026-05-09 02:05 | 18.75756 | 100.81201 | 7374 ft | 278 kts | 200° |
| 2026-05-09 02:05 | 18.73936 | 100.80472 | 8186 ft | 281 kts | 199° |
| 2026-05-09 02:05 | 18.72084 | 100.79774 | 8996 ft | 284 kts | 198° |
| 2026-05-09 02:06 | 18.70201 | 100.79097 | 9796 ft | 288 kts | 198° |
| 2026-05-09 02:06 | 18.68269 | 100.78417 | 10304 ft | 301 kts | 198° |
| 2026-05-09 02:06 | 18.66205 | 100.77698 | 10539 ft | 323 kts | 198° |
| 2026-05-09 02:07 | 18.61837 | 100.76189 | 11725 ft | 334 kts | 198° |
| 2026-05-09 02:07 | 18.59617 | 100.75420 | 12392 ft | 338 kts | 198° |
| 2026-05-09 02:07 | 18.57375 | 100.74645 | 13051 ft | 341 kts | 197° |
| 2026-05-09 02:07 | 18.55110 | 100.73866 | 13709 ft | 344 kts | 197° |
| 2026-05-09 02:08 | 18.52857 | 100.73088 | 14287 ft | 346 kts | 197° |
| 2026-05-09 02:08 | 18.50560 | 100.72293 | 14854 ft | 349 kts | 197° |
| 2026-05-09 02:08 | 18.48245 | 100.71491 | 15409 ft | 352 kts | 197° |
| 2026-05-09 02:08 | 18.45913 | 100.70684 | 15976 ft | 354 kts | 197° |
| 2026-05-09 02:09 | 18.43563 | 100.69870 | 16538 ft | 357 kts | 197° |
| 2026-05-09 02:09 | 18.41199 | 100.69053 | 17110 ft | 359 kts | 197° |
| 2026-05-09 02:09 | 18.38814 | 100.68232 | 17675 ft | 362 kts | 197° |
| 2026-05-09 02:09 | 18.36417 | 100.67405 | 18232 ft | 364 kts | 197° |
| 2026-05-09 02:10 | 18.33999 | 100.66567 | 18708 ft | 367 kts | 197° |
| 2026-05-09 02:10 | 18.31565 | 100.65722 | 19158 ft | 370 kts | 197° |
| 2026-05-09 02:10 | 18.29107 | 100.64870 | 19605 ft | 374 kts | 197° |
| 2026-05-09 02:10 | 18.26624 | 100.64012 | 20040 ft | 377 kts | 197° |
| 2026-05-09 02:11 | 18.24120 | 100.63151 | 20475 ft | 381 kts | 197° |
| 2026-05-09 02:11 | 18.21590 | 100.62282 | 20910 ft | 384 kts | 197° |
| 2026-05-09 02:11 | 18.19043 | 100.61405 | 21330 ft | 387 kts | 197° |
| 2026-05-09 02:11 | 18.16474 | 100.60520 | 21740 ft | 390 kts | 197° |
| 2026-05-09 02:12 | 18.13880 | 100.59629 | 22142 ft | 394 kts | 197° |
| 2026-05-09 02:12 | 18.11266 | 100.58732 | 22533 ft | 397 kts | 197° |
| 2026-05-09 02:12 | 18.08628 | 100.57826 | 22938 ft | 400 kts | 197° |
| 2026-05-09 02:12 | 18.05975 | 100.56915 | 23334 ft | 403 kts | 197° |
| 2026-05-09 02:13 | 18.03305 | 100.55992 | 23722 ft | 405 kts | 197° |
| 2026-05-09 02:13 | 18.00622 | 100.55064 | 24058 ft | 407 kts | 197° |
| 2026-05-09 02:13 | 17.97921 | 100.54133 | 24392 ft | 409 kts | 197° |
| 2026-05-09 02:13 | 17.95209 | 100.53199 | 24719 ft | 411 kts | 197° |
| 2026-05-09 02:14 | 17.92483 | 100.52262 | 25055 ft | 413 kts | 197° |
| 2026-05-09 02:14 | 17.89780 | 100.51336 | 25384 ft | 415 kts | 198° |
| 2026-05-09 02:14 | 17.87026 | 100.50395 | 25715 ft | 417 kts | 198° |
| 2026-05-09 02:14 | 17.84256 | 100.49447 | 26044 ft | 420 kts | 198° |
| 2026-05-09 02:15 | 17.81476 | 100.48494 | 26367 ft | 422 kts | 198° |
| 2026-05-09 02:15 | 17.78678 | 100.47531 | 26698 ft | 424 kts | 198° |
| 2026-05-09 02:15 | 17.75867 | 100.46561 | 27029 ft | 425 kts | 198° |
| 2026-05-09 02:15 | 17.73048 | 100.45595 | 27354 ft | 427 kts | 197° |
| 2026-05-09 02:16 | 17.70152 | 100.44878 | 27656 ft | 429 kts | 189° |
| 2026-05-09 02:16 | 17.67199 | 100.44384 | 27957 ft | 431 kts | 189° |
| 2026-05-09 02:16 | 17.64229 | 100.43886 | 28259 ft | 433 kts | 189° |
| 2026-05-09 02:16 | 17.61244 | 100.43381 | 28568 ft | 435 kts | 189° |
| 2026-05-09 02:17 | 17.58249 | 100.42872 | 28884 ft | 437 kts | 189° |
| 2026-05-09 02:17 | 17.55236 | 100.42360 | 29197 ft | 440 kts | 189° |
| 2026-05-09 02:17 | 17.52211 | 100.41845 | 29508 ft | 442 kts | 189° |
| 2026-05-09 02:17 | 17.49168 | 100.41325 | 29836 ft | 444 kts | 189° |
| 2026-05-09 02:18 | 17.46112 | 100.40801 | 30134 ft | 446 kts | 189° |
| 2026-05-09 02:18 | 17.43042 | 100.40275 | 30409 ft | 448 kts | 189° |
| 2026-05-09 02:18 | 17.39961 | 100.39754 | 30675 ft | 450 kts | 189° |
| 2026-05-09 02:18 | 17.36865 | 100.39232 | 30936 ft | 452 kts | 189° |
| 2026-05-09 02:19 | 17.33753 | 100.38708 | 31196 ft | 454 kts | 189° |
| 2026-05-09 02:19 | 17.30637 | 100.38181 | 31564 ft | 453 kts | 189° |
| 2026-05-09 02:19 | 17.27532 | 100.37653 | 31955 ft | 452 kts | 189° |
| 2026-05-09 02:19 | 17.24429 | 100.37127 | 32341 ft | 451 kts | 189° |
| 2026-05-09 02:20 | 17.21333 | 100.36604 | 32733 ft | 451 kts | 189° |
| 2026-05-09 02:20 | 17.18239 | 100.36082 | 33119 ft | 450 kts | 189° |
| 2026-05-09 02:20 | 17.15152 | 100.35558 | 33513 ft | 450 kts | 189° |
| 2026-05-09 02:20 | 17.12064 | 100.35035 | 33895 ft | 449 kts | 189° |
| 2026-05-09 02:21 | 17.08981 | 100.34516 | 34221 ft | 449 kts | 189° |
| 2026-05-09 02:21 | 17.05937 | 100.34004 | 34532 ft | 449 kts | 189° |
| 2026-05-09 02:21 | 17.02854 | 100.33486 | 34849 ft | 449 kts | 189° |
| 2026-05-09 02:21 | 16.99771 | 100.32970 | 34956 ft | 447 kts | 190° |
| 2026-05-09 02:22 | 16.96709 | 100.32455 | 34983 ft | 444 kts | 190° |
| 2026-05-09 02:22 | 16.90630 | 100.31428 | 34980 ft | 442 kts | 190° |
| 2026-05-09 02:23 | 16.84558 | 100.30407 | 35002 ft | 442 kts | 190° |
| 2026-05-09 02:23 | 16.78485 | 100.29385 | 35002 ft | 442 kts | 189° |
| 2026-05-09 02:24 | 16.72339 | 100.29153 | 35001 ft | 443 kts | 180° |
| 2026-05-09 02:24 | 16.66168 | 100.29177 | 35001 ft | 443 kts | 180° |
| 2026-05-09 02:25 | 16.59998 | 100.29202 | 34998 ft | 443 kts | 180° |
| 2026-05-09 02:25 | 16.53865 | 100.29227 | 34993 ft | 443 kts | 180° |
| 2026-05-09 02:26 | 16.47695 | 100.29255 | 34986 ft | 443 kts | 180° |
| 2026-05-09 02:26 | 16.41520 | 100.29284 | 34979 ft | 444 kts | 180° |
| 2026-05-09 02:27 | 16.35343 | 100.29304 | 34978 ft | 444 kts | 180° |
| 2026-05-09 02:27 | 16.29159 | 100.29324 | 34976 ft | 445 kts | 180° |
| 2026-05-09 02:28 | 16.22967 | 100.29352 | 34976 ft | 445 kts | 180° |
| 2026-05-09 02:28 | 16.16771 | 100.29381 | 34980 ft | 445 kts | 180° |
| 2026-05-09 02:29 | 16.10570 | 100.29409 | 34984 ft | 445 kts | 180° |
| 2026-05-09 02:29 | 16.04419 | 100.29430 | 34988 ft | 445 kts | 180° |
| 2026-05-09 02:30 | 15.98224 | 100.29456 | 34986 ft | 445 kts | 180° |
| 2026-05-09 02:30 | 15.92038 | 100.29484 | 34985 ft | 445 kts | 180° |
| 2026-05-09 02:31 | 15.85839 | 100.29515 | 34981 ft | 445 kts | 180° |
| 2026-05-09 02:31 | 15.79649 | 100.29538 | 34985 ft | 445 kts | 180° |
| 2026-05-09 02:32 | 15.73455 | 100.29557 | 34980 ft | 445 kts | 180° |
| 2026-05-09 02:32 | 15.67271 | 100.29584 | 34984 ft | 444 kts | 180° |
| 2026-05-09 02:33 | 15.61073 | 100.29614 | 34965 ft | 446 kts | 180° |
| 2026-05-09 02:33 | 15.54944 | 100.29643 | 34524 ft | 435 kts | 180° |
| 2026-05-09 02:33 | 15.51943 | 100.29656 | 33855 ft | 428 kts | 179° |
| 2026-05-09 02:34 | 15.48982 | 100.29671 | 33065 ft | 423 kts | 180° |
| 2026-05-09 02:34 | 15.46056 | 100.29685 | 32303 ft | 418 kts | 180° |
| 2026-05-09 02:34 | 15.43173 | 100.29697 | 31611 ft | 411 kts | 180° |
| 2026-05-09 02:34 | 15.40332 | 100.29707 | 30920 ft | 406 kts | 180° |
| 2026-05-09 02:35 | 15.37492 | 100.29715 | 29922 ft | 415 kts | 180° |
| 2026-05-09 02:35 | 15.34619 | 100.29724 | 29587 ft | 408 kts | 180° |
| 2026-05-09 02:35 | 15.31808 | 100.29733 | 29278 ft | 401 kts | 180° |
| 2026-05-09 02:35 | 15.29966 | 100.29816 | 29001 ft | 399 kts | 173° |
| 2026-05-09 02:36 | 15.26388 | 100.30707 | 28464 ft | 394 kts | 159° |
| 2026-05-09 02:36 | 15.24744 | 100.31492 | 28205 ft | 393 kts | 151° |
| 2026-05-09 02:36 | 15.21619 | 100.33417 | 27673 ft | 389 kts | 149° |
| 2026-05-09 02:36 | 15.20083 | 100.34368 | 27407 ft | 388 kts | 149° |
| 2026-05-09 02:37 | 15.17775 | 100.35792 | 27011 ft | 385 kts | 150° |
| 2026-05-09 02:37 | 15.15475 | 100.37203 | 26603 ft | 383 kts | 150° |
| 2026-05-09 02:37 | 15.13189 | 100.38603 | 26194 ft | 381 kts | 150° |
| 2026-05-09 02:37 | 15.10906 | 100.40002 | 25778 ft | 380 kts | 150° |
| 2026-05-09 02:38 | 15.08638 | 100.41393 | 25354 ft | 379 kts | 150° |
| 2026-05-09 02:38 | 15.06375 | 100.42780 | 24926 ft | 377 kts | 150° |
| 2026-05-09 02:38 | 15.04116 | 100.44162 | 24487 ft | 377 kts | 150° |
| 2026-05-09 02:38 | 15.01863 | 100.45542 | 24050 ft | 376 kts | 150° |
| 2026-05-09 02:39 | 14.99612 | 100.46924 | 23607 ft | 376 kts | 150° |
| 2026-05-09 02:39 | 14.97363 | 100.48304 | 23105 ft | 375 kts | 150° |
| 2026-05-09 02:39 | 14.95131 | 100.49676 | 22664 ft | 372 kts | 150° |
| 2026-05-09 02:39 | 14.92914 | 100.51035 | 22212 ft | 369 kts | 150° |
| 2026-05-09 02:40 | 14.90711 | 100.52382 | 21779 ft | 366 kts | 151° |
| 2026-05-09 02:40 | 14.88554 | 100.53700 | 21352 ft | 364 kts | 151° |
| 2026-05-09 02:40 | 14.86381 | 100.55027 | 20920 ft | 362 kts | 151° |
| 2026-05-09 02:40 | 14.84219 | 100.56346 | 20486 ft | 360 kts | 151° |
| 2026-05-09 02:41 | 14.82066 | 100.57659 | 20045 ft | 358 kts | 151° |
| 2026-05-09 02:41 | 14.79929 | 100.58965 | 19617 ft | 356 kts | 151° |
| 2026-05-09 02:41 | 14.77802 | 100.60267 | 19188 ft | 354 kts | 151° |
| 2026-05-09 02:41 | 14.75687 | 100.61563 | 18760 ft | 353 kts | 151° |
| 2026-05-09 02:42 | 14.73579 | 100.62855 | 18333 ft | 352 kts | 151° |
| 2026-05-09 02:42 | 14.71415 | 100.64005 | 17870 ft | 347 kts | 161° |
| 2026-05-09 02:42 | 14.69146 | 100.64721 | 17714 ft | 335 kts | 166° |
| 2026-05-09 02:42 | 14.66928 | 100.65396 | 17352 ft | 332 kts | 165° |
| 2026-05-09 02:43 | 14.64724 | 100.66076 | 17032 ft | 328 kts | 165° |
| 2026-05-09 02:43 | 14.62556 | 100.66750 | 16753 ft | 324 kts | 164° |
| 2026-05-09 02:43 | 14.60406 | 100.67421 | 16469 ft | 322 kts | 164° |
| 2026-05-09 02:43 | 14.58267 | 100.68085 | 16195 ft | 320 kts | 164° |
| 2026-05-09 02:44 | 14.56142 | 100.68743 | 15917 ft | 318 kts | 164° |
| 2026-05-09 02:44 | 14.54027 | 100.69397 | 15652 ft | 317 kts | 164° |
| 2026-05-09 02:44 | 14.51919 | 100.70046 | 15368 ft | 316 kts | 164° |
| 2026-05-09 02:44 | 14.49845 | 100.70686 | 15101 ft | 315 kts | 163° |
| 2026-05-09 02:45 | 14.47752 | 100.71330 | 14831 ft | 313 kts | 163° |
| 2026-05-09 02:45 | 14.45645 | 100.71861 | 14558 ft | 311 kts | 173° |
| 2026-05-09 02:45 | 14.43490 | 100.71880 | 14293 ft | 310 kts | 187° |
| 2026-05-09 02:45 | 14.41389 | 100.71407 | 14028 ft | 309 kts | 194° |
| 2026-05-09 02:46 | 14.39315 | 100.70851 | 13758 ft | 307 kts | 193° |
| 2026-05-09 02:46 | 14.37246 | 100.70301 | 13475 ft | 306 kts | 193° |
| 2026-05-09 02:46 | 14.35191 | 100.69757 | 13205 ft | 305 kts | 193° |
| 2026-05-09 02:46 | 14.33137 | 100.69214 | 12944 ft | 304 kts | 193° |
| 2026-05-09 02:47 | 14.31088 | 100.68672 | 12679 ft | 304 kts | 193° |
| 2026-05-09 02:47 | 14.29037 | 100.68134 | 12421 ft | 304 kts | 193° |
| 2026-05-09 02:47 | 14.26993 | 100.67597 | 12157 ft | 303 kts | 193° |
| 2026-05-09 02:47 | 14.24954 | 100.67062 | 11891 ft | 302 kts | 193° |
| 2026-05-09 02:48 | 14.22922 | 100.66528 | 11628 ft | 301 kts | 193° |
| 2026-05-09 02:48 | 14.20901 | 100.65995 | 11367 ft | 299 kts | 193° |
| 2026-05-09 02:48 | 14.18887 | 100.65464 | 11103 ft | 298 kts | 193° |
| 2026-05-09 02:48 | 14.16880 | 100.64936 | 10837 ft | 297 kts | 193° |
| 2026-05-09 02:49 | 14.14881 | 100.64412 | 10577 ft | 296 kts | 192° |
| 2026-05-09 02:49 | 14.12892 | 100.63890 | 10316 ft | 295 kts | 192° |
| 2026-05-09 02:49 | 14.10906 | 100.63365 | 10063 ft | 294 kts | 193° |
| 2026-05-09 02:49 | 14.08927 | 100.62839 | 9791 ft | 293 kts | 192° |
| 2026-05-09 02:50 | 14.06956 | 100.62318 | 9505 ft | 292 kts | 192° |
| 2026-05-09 02:50 | 14.04994 | 100.61802 | 9259 ft | 290 kts | 192° |
| 2026-05-09 02:50 | 14.03093 | 100.61303 | 9126 ft | 281 kts | 192° |
| 2026-05-09 02:50 | 14.01203 | 100.61091 | 9000 ft | 268 kts | 168° |
| 2026-05-09 02:51 | 13.99560 | 100.61843 | 8872 ft | 256 kts | 137° |
| 2026-05-09 02:51 | 13.98577 | 100.63315 | 8680 ft | 251 kts | 109° |
| 2026-05-09 02:51 | 13.98096 | 100.65040 | 8417 ft | 249 kts | 105° |
| 2026-05-09 02:51 | 13.97655 | 100.66766 | 8166 ft | 247 kts | 105° |
| 2026-05-09 02:52 | 13.97224 | 100.68471 | 7859 ft | 248 kts | 105° |
| 2026-05-09 02:52 | 13.97049 | 100.70213 | 7672 ft | 245 kts | 82° |
| 2026-05-09 02:52 | 13.97764 | 100.71793 | 7390 ft | 250 kts | 49° |
| 2026-05-09 02:52 | 13.99249 | 100.72740 | 7010 ft | 260 kts | 19° |
| 2026-05-09 02:53 | 14.01056 | 100.73113 | 6658 ft | 264 kts | 14° |
| 2026-05-09 02:53 | 14.02825 | 100.73529 | 6447 ft | 260 kts | 17° |
| 2026-05-09 02:53 | 14.04575 | 100.73999 | 6179 ft | 258 kts | 18° |
| 2026-05-09 02:53 | 14.06283 | 100.74472 | 5939 ft | 262 kts | 18° |
| 2026-05-09 02:54 | 14.07997 | 100.75179 | 5691 ft | 264 kts | 37° |
| 2026-05-09 02:54 | 14.09249 | 100.76498 | 5445 ft | 255 kts | 62° |
| 2026-05-09 02:54 | 14.09827 | 100.78175 | 5205 ft | 246 kts | 85° |
| 2026-05-09 02:54 | 14.09688 | 100.79891 | 5043 ft | 237 kts | 109° |
| 2026-05-09 02:55 | 14.08946 | 100.81344 | 4993 ft | 223 kts | 129° |
| 2026-05-09 02:55 | 14.07810 | 100.82361 | 5001 ft | 215 kts | 149° |
| 2026-05-09 02:55 | 14.06431 | 100.82939 | 5003 ft | 215 kts | 160° |
| 2026-05-09 02:55 | 14.05019 | 100.83433 | 5003 ft | 215 kts | 159° |
| 2026-05-09 02:56 | 14.03605 | 100.83930 | 5001 ft | 214 kts | 159° |
| 2026-05-09 02:56 | 14.02174 | 100.84363 | 5001 ft | 215 kts | 169° |
| 2026-05-09 02:56 | 14.00670 | 100.84334 | 5002 ft | 218 kts | 187° |
| 2026-05-09 02:56 | 13.99183 | 100.84006 | 5001 ft | 219 kts | 191° |
| 2026-05-09 02:57 | 13.97702 | 100.83617 | 5011 ft | 220 kts | 192° |
| 2026-05-09 02:57 | 13.96224 | 100.83225 | 5000 ft | 220 kts | 191° |
| 2026-05-09 02:57 | 13.94740 | 100.82833 | 4886 ft | 220 kts | 191° |
| 2026-05-09 02:57 | 13.93264 | 100.82444 | 4648 ft | 218 kts | 191° |
| 2026-05-09 02:58 | 13.91792 | 100.82057 | 4372 ft | 218 kts | 192° |
| 2026-05-09 02:58 | 13.90323 | 100.81670 | 4096 ft | 218 kts | 191° |
| 2026-05-09 02:58 | 13.88858 | 100.81284 | 3818 ft | 218 kts | 191° |
| 2026-05-09 02:58 | 13.87390 | 100.80897 | 3526 ft | 218 kts | 191° |
| 2026-05-09 02:59 | 13.85924 | 100.80511 | 3254 ft | 218 kts | 192° |
| 2026-05-09 02:59 | 13.84458 | 100.80125 | 2990 ft | 216 kts | 192° |
| 2026-05-09 02:59 | 13.83030 | 100.79749 | 2700 ft | 208 kts | 192° |
| 2026-05-09 02:59 | 13.81653 | 100.79386 | 2424 ft | 198 kts | 192° |
| 2026-05-09 03:00 | 13.80379 | 100.79050 | 2187 ft | 179 kts | 192° |
| 2026-05-09 03:00 | 13.79228 | 100.78748 | 1968 ft | 168 kts | 192° |
| 2026-05-09 03:00 | 13.78153 | 100.78465 | 1761 ft | 154 kts | 193° |
| 2026-05-09 03:00 | 13.77139 | 100.78198 | 1570 ft | 148 kts | 193° |
| 2026-05-09 03:01 | 13.76155 | 100.77940 | 1386 ft | 145 kts | 193° |
| 2026-05-09 03:01 | 13.75175 | 100.77682 | 1202 ft | 144 kts | 193° |
| 2026-05-09 03:01 | 13.74204 | 100.77427 | 1010 ft | 144 kts | 193° |
| 2026-05-09 03:01 | 13.73236 | 100.77172 | 825 ft | 143 kts | 194° |
| 2026-05-09 03:02 | 13.72269 | 100.76917 | 681 ft | 144 kts | 194° |
| 2026-05-09 03:02 | 13.71300 | 100.76665 | 469 ft | 142 kts | 195° |
| 2026-05-09 03:02 | 13.70320 | 100.76408 | 293 ft | 149 kts | 198° |
| 2026-05-09 03:02 | 13.69320 | 100.76145 | 97 ft | 147 kts | 198° |
| 2026-05-09 03:03 | 13.68371 | 100.75881 | 31 ft | 136 kts | 198° |
| 2026-05-09 03:03 | 13.67386 | 100.75652 | 571 ft | 148 kts | 194° |
| 2026-05-09 03:03 | 13.66339 | 100.75420 | 1284 ft | 162 kts | 192° |
| 2026-05-09 03:03 | 13.65176 | 100.75132 | 1715 ft | 182 kts | 192° |
| 2026-05-09 03:04 | 13.63871 | 100.74788 | 2013 ft | 205 kts | 192° |
| 2026-05-09 03:04 | 13.62436 | 100.74450 | 2499 ft | 215 kts | 182° |
| 2026-05-09 03:04 | 13.60988 | 100.74663 | 3293 ft | 212 kts | 147° |
| 2026-05-09 03:04 | 13.60056 | 100.75774 | 4057 ft | 210 kts | 108° |
| 2026-05-09 03:05 | 13.60067 | 100.77256 | 4721 ft | 216 kts | 72° |
| 2026-05-09 03:05 | 13.60736 | 100.78643 | 4920 ft | 217 kts | 61° |
| 2026-05-09 03:05 | 13.61579 | 100.79929 | 4972 ft | 218 kts | 55° |
| 2026-05-09 03:05 | 13.62438 | 100.81206 | 4975 ft | 216 kts | 60° |
| 2026-05-09 03:06 | 13.63204 | 100.82508 | 4978 ft | 216 kts | 62° |
| 2026-05-09 03:06 | 13.63958 | 100.83842 | 4985 ft | 216 kts | 62° |
| 2026-05-09 03:06 | 13.64709 | 100.85177 | 4985 ft | 216 kts | 62° |
| 2026-05-09 03:06 | 13.65467 | 100.86513 | 4976 ft | 216 kts | 62° |
| 2026-05-09 03:07 | 13.66226 | 100.87844 | 4988 ft | 216 kts | 62° |
| 2026-05-09 03:07 | 13.66990 | 100.89182 | 4983 ft | 217 kts | 62° |
| 2026-05-09 03:07 | 13.67752 | 100.90516 | 4983 ft | 216 kts | 62° |
| 2026-05-09 03:07 | 13.68516 | 100.91850 | 4986 ft | 216 kts | 62° |
| 2026-05-09 03:08 | 13.69280 | 100.93181 | 4979 ft | 216 kts | 62° |
| 2026-05-09 03:08 | 13.70044 | 100.94512 | 4980 ft | 216 kts | 62° |
| 2026-05-09 03:08 | 13.70805 | 100.95843 | 4981 ft | 216 kts | 62° |
| 2026-05-09 03:08 | 13.71612 | 100.97149 | 4978 ft | 217 kts | 52° |
| 2026-05-09 03:09 | 13.72778 | 100.98151 | 4988 ft | 222 kts | 31° |
| 2026-05-09 03:09 | 13.74237 | 100.98685 | 4976 ft | 224 kts | 17° |
| 2026-05-09 03:09 | 13.75752 | 100.99081 | 4978 ft | 225 kts | 17° |
| 2026-05-09 03:09 | 13.77266 | 100.99481 | 4984 ft | 225 kts | 17° |
| 2026-05-09 03:10 | 13.78780 | 100.99883 | 4981 ft | 224 kts | 17° |
| 2026-05-09 03:10 | 13.80294 | 101.00288 | 4827 ft | 224 kts | 17° |
| 2026-05-09 03:10 | 13.81795 | 101.00688 | 4662 ft | 222 kts | 17° |
| 2026-05-09 03:10 | 13.83286 | 101.01085 | 4489 ft | 221 kts | 17° |
| 2026-05-09 03:11 | 13.84774 | 101.01482 | 4298 ft | 220 kts | 17° |
| 2026-05-09 03:11 | 13.86274 | 101.01778 | 4102 ft | 221 kts | 1° |
| 2026-05-09 03:11 | 13.87742 | 101.01422 | 3918 ft | 224 kts | 332° |
| 2026-05-09 03:11 | 13.88875 | 101.00340 | 3720 ft | 225 kts | 301° |
| 2026-05-09 03:12 | 13.89399 | 100.98836 | 3530 ft | 225 kts | 284° |
| 2026-05-09 03:12 | 13.89784 | 100.97274 | 3339 ft | 226 kts | 284° |
| 2026-05-09 03:12 | 13.90172 | 100.95712 | 3147 ft | 224 kts | 285° |
| 2026-05-09 03:12 | 13.90559 | 100.94166 | 3027 ft | 223 kts | 284° |
| 2026-05-09 03:13 | 13.91341 | 100.91075 | 2981 ft | 224 kts | 285° |
| 2026-05-09 03:13 | 13.91734 | 100.89518 | 2980 ft | 224 kts | 285° |
| 2026-05-09 03:13 | 13.92126 | 100.87967 | 2979 ft | 224 kts | 285° |
| 2026-05-09 03:14 | 13.92519 | 100.86413 | 2987 ft | 224 kts | 285° |
| 2026-05-09 03:14 | 13.92831 | 100.84844 | 2986 ft | 224 kts | 270° |
| 2026-05-09 03:14 | 13.92491 | 100.83305 | 2988 ft | 222 kts | 240° |
| 2026-05-09 03:14 | 13.91480 | 100.82143 | 2986 ft | 218 kts | 209° |
| 2026-05-09 03:15 | 13.90079 | 100.81595 | 2988 ft | 216 kts | 191° |
| 2026-05-09 03:15 | 13.88621 | 100.81217 | 2984 ft | 216 kts | 191° |
| 2026-05-09 03:15 | 13.88019 | 100.81061 | 2984 ft | 216 kts | 192° |
| 2026-05-09 03:15 | 13.86560 | 100.80679 | 2989 ft | 216 kts | 191° |
| 2026-05-09 03:16 | 13.85103 | 100.80296 | 2968 ft | 217 kts | 192° |
| 2026-05-09 03:16 | 13.83674 | 100.79919 | 2805 ft | 211 kts | 191° |
| 2026-05-09 03:16 | 13.82286 | 100.79553 | 2555 ft | 200 kts | 191° |
| 2026-05-09 03:16 | 13.81019 | 100.79217 | 2330 ft | 174 kts | 191° |
| 2026-05-09 03:17 | 13.79917 | 100.78927 | 2089 ft | 156 kts | 190° |
| 2026-05-09 03:17 | 13.78888 | 100.78657 | 1903 ft | 149 kts | 189° |
| 2026-05-09 03:17 | 13.77890 | 100.78395 | 1712 ft | 148 kts | 191° |
| 2026-05-09 03:17 | 13.76900 | 100.78136 | 1526 ft | 146 kts | 191° |
| 2026-05-09 03:18 | 13.75923 | 100.77879 | 1342 ft | 145 kts | 191° |
| 2026-05-09 03:18 | 13.74945 | 100.77622 | 1155 ft | 144 kts | 192° |
| 2026-05-09 03:18 | 13.73972 | 100.77366 | 970 ft | 144 kts | 191° |
| 2026-05-09 03:18 | 13.73001 | 100.77109 | 783 ft | 144 kts | 193° |
| 2026-05-09 03:19 | 13.72027 | 100.76854 | 632 ft | 146 kts | 194° |
| 2026-05-09 03:19 | 13.71045 | 100.76605 | 409 ft | 144 kts | 196° |
| 2026-05-09 03:19 | 13.70071 | 100.76341 | 234 ft | 147 kts | 198° |
| 2026-05-09 03:19 | 13.69079 | 100.76080 | 46 ft | 147 kts | 198° |
| 2026-05-09 03:20 | 13.68183 | 100.75842 | 13 ft | 115 kts | 194° |
| 2026-05-09 03:20 | 13.67574 | 100.75685 | 11 ft | 66 kts | 193° |
| 2026-05-09 03:20 | 13.67241 | 100.75581 | 13 ft | 43 kts | 210° |
| 2026-05-09 03:20 | 13.67105 | 100.75450 | 13 ft | 22 kts | 226° |
| 2026-05-09 03:21 | 13.67139 | 100.75382 | 13 ft | 15 kts | 2° |
| 2026-05-09 03:21 | 13.67245 | 100.75407 | 13 ft | 17 kts | 15° |
| 2026-05-09 03:21 | 13.67354 | 100.75436 | 13 ft | 14 kts | 13° |
| 2026-05-09 03:21 | 13.67456 | 100.75461 | 13 ft | 16 kts | 13° |
| 2026-05-09 03:22 | 13.67573 | 100.75493 | 13 ft | 18 kts | 14° |
| 2026-05-09 03:22 | 13.67692 | 100.75524 | 13 ft | 16 kts | 14° |
| 2026-05-09 03:22 | 13.67808 | 100.75555 | 13 ft | 18 kts | 14° |
| 2026-05-09 03:22 | 13.67912 | 100.75582 | 14 ft | 15 kts | 14° |
| 2026-05-09 03:23 | 13.68018 | 100.75610 | 13 ft | 17 kts | 14° |
| 2026-05-09 03:23 | 13.68140 | 100.75642 | 13 ft | 19 kts | 14° |
| 2026-05-09 03:23 | 13.68276 | 100.75678 | 13 ft | 21 kts | 14° |
| 2026-05-09 03:23 | 13.68405 | 100.75711 | 14 ft | 14 kts | 12° |
| 2026-05-09 03:24 | 13.68460 | 100.75638 | 15 ft | 16 kts | 284° |
| 2026-05-09 03:24 | 13.68490 | 100.75518 | 15 ft | 19 kts | 284° |
| 2026-05-09 03:24 | 13.68543 | 100.75448 | 13 ft | 13 kts | 0° |
| 2026-05-09 03:24 | 13.68601 | 100.75463 | 14 ft | 8 kts | 14° |
| 2026-05-09 03:25 | 13.68628 | 100.75421 | 13 ft | 9 kts | 282° |
| 2026-05-09 03:25 | 13.68639 | 100.75375 | 13 ft | 1 kts | 284° |
| 2026-05-09 03:25 | 13.68642 | 100.75366 | 13 ft | 0 kts | 284° |